sensor_id;sensor_type;location;lat;lon;timestamp;P1;durP1;ratioP1;P2;durP2;ratioP2
10910;SDS011;5508;49.150;11.030;2022-10-31T00:01:01;11.67;;;7.30;;
10910;SDS011;5508;49.150;11.030;2022-10-31T00:04:02;10.87;;;6.03;;
10910;SDS011;5508;49.150;11.030;2022-10-31T00:07:03;10.37;;;6.97;;
10910;SDS011;5508;49.150;11.030;2022-10-31T00:10:03;9.13;;;5.97;;
10910;SDS011;5508;49.150;11.030;2022-10-31T00:13:05;10.83;;;6.63;;
10910;SDS011;5508;49.150;11.030;2022-10-31T00:16:12;6.87;;;5.90;;
10910;SDS011;5508;49.150;11.030;2022-10-31T00:19:17;8.30;;;5.07;;
10910;SDS011;5508;49.150;11.030;2022-10-31T00:22:18;8.60;;;5.77;;
10910;SDS011;5508;49.150;11.030;2022-10-31T00:25:18;11.33;;;4.97;;
10910;SDS011;5508;49.150;11.030;2022-10-31T00:28:20;10.07;;;5.37;;
10910;SDS011;5508;49.150;11.030;2022-10-31T00:31:21;13.60;;;5.73;;
10910;SDS011;5508;49.150;11.030;2022-10-31T00:34:21;11.93;;;5.73;;
10910;SDS011;5508;49.150;11.030;2022-10-31T00:37:22;10.53;;;5.23;;
10910;SDS011;5508;49.150;11.030;2022-10-31T00:40:22;11.07;;;4.83;;
10910;SDS011;5508;49.150;11.030;2022-10-31T00:43:23;9.27;;;5.60;;
10910;SDS011;5508;49.150;11.030;2022-10-31T00:46:24;10.50;;;5.60;;
10910;SDS011;5508;49.150;11.030;2022-10-31T00:49:25;7.33;;;4.80;;
10910;SDS011;5508;49.150;11.030;2022-10-31T00:52:25;13.07;;;4.90;;
10910;SDS011;5508;49.150;11.030;2022-10-31T00:55:26;8.63;;;5.10;;
10910;SDS011;5508;49.150;11.030;2022-10-31T00:58:26;7.63;;;4.90;;
10910;SDS011;5508;49.150;11.030;2022-10-31T01:01:27;6.80;;;5.30;;
10910;SDS011;5508;49.150;11.030;2022-10-31T01:04:27;9.90;;;6.10;;
10910;SDS011;5508;49.150;11.030;2022-10-31T01:07:28;9.27;;;6.07;;
10910;SDS011;5508;49.150;11.030;2022-10-31T01:10:28;7.83;;;6.10;;
10910;SDS011;5508;49.150;11.030;2022-10-31T01:13:29;10.27;;;5.17;;
10910;SDS011;5508;49.150;11.030;2022-10-31T01:16:30;7.67;;;6.33;;
10910;SDS011;5508;49.150;11.030;2022-10-31T01:19:30;11.90;;;5.90;;
10910;SDS011;5508;49.150;11.030;2022-10-31T01:22:31;9.90;;;6.07;;
10910;SDS011;5508;49.150;11.030;2022-10-31T01:25:32;16.97;;;7.40;;
10910;SDS011;5508;49.150;11.030;2022-10-31T01:28:33;15.43;;;8.50;;
10910;SDS011;5508;49.150;11.030;2022-10-31T01:31:39;17.10;;;8.57;;
10910;SDS011;5508;49.150;11.030;2022-10-31T01:34:40;76.17;;;10.17;;
10910;SDS011;5508;49.150;11.030;2022-10-31T01:37:40;32.63;;;9.70;;
10910;SDS011;5508;49.150;11.030;2022-10-31T01:40:41;24.73;;;10.20;;
10910;SDS011;5508;49.150;11.030;2022-10-31T01:43:42;15.23;;;8.57;;
10910;SDS011;5508;49.150;11.030;2022-10-31T01:46:50;21.40;;;8.93;;
10910;SDS011;5508;49.150;11.030;2022-10-31T01:49:57;16.47;;;8.30;;
10910;SDS011;5508;49.150;11.030;2022-10-31T01:53:02;13.97;;;8.10;;
10910;SDS011;5508;49.150;11.030;2022-10-31T01:56:06;11.93;;;7.73;;
10910;SDS011;5508;49.150;11.030;2022-10-31T01:59:09;9.47;;;6.83;;
10910;SDS011;5508;49.150;11.030;2022-10-31T02:02:12;13.10;;;6.97;;
10910;SDS011;5508;49.150;11.030;2022-10-31T02:05:19;13.13;;;7.23;;
10910;SDS011;5508;49.150;11.030;2022-10-31T02:08:23;12.53;;;7.30;;
10910;SDS011;5508;49.150;11.030;2022-10-31T02:11:30;12.23;;;7.03;;
10910;SDS011;5508;49.150;11.030;2022-10-31T02:14:32;13.80;;;7.53;;
10910;SDS011;5508;49.150;11.030;2022-10-31T02:17:33;12.20;;;8.17;;
10910;SDS011;5508;49.150;11.030;2022-10-31T02:20:40;29.07;;;17.50;;
10910;SDS011;5508;49.150;11.030;2022-10-31T02:34:21;8.87;;;6.47;;
10910;SDS011;5508;49.150;11.030;2022-10-31T02:40:58;14.83;;;6.27;;
10910;SDS011;5508;49.150;11.030;2022-10-31T02:47:29;11.07;;;6.40;;
10910;SDS011;5508;49.150;11.030;2022-10-31T02:50:34;11.07;;;5.93;;
10910;SDS011;5508;49.150;11.030;2022-10-31T02:53:39;11.20;;;6.23;;
10910;SDS011;5508;49.150;11.030;2022-10-31T02:56:39;11.97;;;7.30;;
10910;SDS011;5508;49.150;11.030;2022-10-31T02:59:42;9.30;;;6.27;;
10910;SDS011;5508;49.150;11.030;2022-10-31T03:02:53;8.77;;;5.77;;
10910;SDS011;5508;49.150;11.030;2022-10-31T03:06:30;9.60;;;5.90;;
10910;SDS011;5508;49.150;11.030;2022-10-31T03:16:29;14.23;;;6.80;;
10910;SDS011;5508;49.150;11.030;2022-10-31T03:19:40;9.97;;;6.13;;
10910;SDS011;5508;49.150;11.030;2022-10-31T03:22:45;10.47;;;6.40;;
10910;SDS011;5508;49.150;11.030;2022-10-31T03:25:46;7.00;;;6.03;;
10910;SDS011;5508;49.150;11.030;2022-10-31T03:28:49;9.17;;;5.67;;
10910;SDS011;5508;49.150;11.030;2022-10-31T03:32:03;11.27;;;7.20;;
10910;SDS011;5508;49.150;11.030;2022-10-31T03:35:12;12.67;;;6.20;;
10910;SDS011;5508;49.150;11.030;2022-10-31T03:38:15;7.93;;;5.90;;
10910;SDS011;5508;49.150;11.030;2022-10-31T03:41:17;10.53;;;5.57;;
10910;SDS011;5508;49.150;11.030;2022-10-31T03:44:21;9.70;;;5.60;;
10910;SDS011;5508;49.150;11.030;2022-10-31T03:47:23;11.40;;;6.17;;
10910;SDS011;5508;49.150;11.030;2022-10-31T03:50:25;9.80;;;6.00;;
10910;SDS011;5508;49.150;11.030;2022-10-31T03:53:39;9.00;;;6.60;;
10910;SDS011;5508;49.150;11.030;2022-10-31T03:57:03;11.43;;;6.00;;
10910;SDS011;5508;49.150;11.030;2022-10-31T04:00:09;15.73;;;8.83;;
10910;SDS011;5508;49.150;11.030;2022-10-31T04:03:14;18.83;;;12.47;;
10910;SDS011;5508;49.150;11.030;2022-10-31T04:06:19;17.33;;;9.87;;
10910;SDS011;5508;49.150;11.030;2022-10-31T04:09:22;10.53;;;9.13;;
10910;SDS011;5508;49.150;11.030;2022-10-31T04:12:26;12.80;;;8.53;;
10910;SDS011;5508;49.150;11.030;2022-10-31T04:15:29;12.57;;;8.13;;
10910;SDS011;5508;49.150;11.030;2022-10-31T04:18:32;12.90;;;8.37;;
10910;SDS011;5508;49.150;11.030;2022-10-31T04:21:32;12.57;;;7.73;;
10910;SDS011;5508;49.150;11.030;2022-10-31T04:24:33;12.23;;;8.00;;
10910;SDS011;5508;49.150;11.030;2022-10-31T04:27:34;10.93;;;6.73;;
10910;SDS011;5508;49.150;11.030;2022-10-31T04:30:34;7.67;;;6.80;;
10910;SDS011;5508;49.150;11.030;2022-10-31T04:33:35;7.23;;;6.13;;
10910;SDS011;5508;49.150;11.030;2022-10-31T04:36:35;12.93;;;5.70;;
10910;SDS011;5508;49.150;11.030;2022-10-31T04:39:36;10.07;;;6.10;;
10910;SDS011;5508;49.150;11.030;2022-10-31T04:42:36;11.93;;;5.63;;
10910;SDS011;5508;49.150;11.030;2022-10-31T04:45:37;10.27;;;5.87;;
10910;SDS011;5508;49.150;11.030;2022-10-31T04:48:38;12.60;;;6.80;;
10910;SDS011;5508;49.150;11.030;2022-10-31T04:51:38;16.90;;;5.90;;
10910;SDS011;5508;49.150;11.030;2022-10-31T04:54:39;10.63;;;5.97;;
10910;SDS011;5508;49.150;11.030;2022-10-31T04:57:40;9.53;;;5.83;;
10910;SDS011;5508;49.150;11.030;2022-10-31T05:00:41;8.37;;;5.90;;
10910;SDS011;5508;49.150;11.030;2022-10-31T05:03:42;10.10;;;6.50;;
10910;SDS011;5508;49.150;11.030;2022-10-31T05:06:42;18.77;;;7.33;;
10910;SDS011;5508;49.150;11.030;2022-10-31T05:09:43;17.87;;;8.20;;
10910;SDS011;5508;49.150;11.030;2022-10-31T05:12:47;17.20;;;7.67;;
10910;SDS011;5508;49.150;11.030;2022-10-31T05:15:50;26.57;;;10.03;;
10910;SDS011;5508;49.150;11.030;2022-10-31T05:18:50;28.50;;;9.60;;
10910;SDS011;5508;49.150;11.030;2022-10-31T05:21:51;37.10;;;11.20;;
10910;SDS011;5508;49.150;11.030;2022-10-31T05:24:52;37.60;;;11.50;;
10910;SDS011;5508;49.150;11.030;2022-10-31T05:27:52;27.13;;;10.17;;
10910;SDS011;5508;49.150;11.030;2022-10-31T05:30:55;16.57;;;9.00;;
10910;SDS011;5508;49.150;11.030;2022-10-31T05:33:56;24.70;;;10.13;;
10910;SDS011;5508;49.150;11.030;2022-10-31T05:36:56;16.93;;;8.57;;
10910;SDS011;5508;49.150;11.030;2022-10-31T05:39:57;35.50;;;9.63;;
10910;SDS011;5508;49.150;11.030;2022-10-31T05:42:57;18.93;;;9.83;;
10910;SDS011;5508;49.150;11.030;2022-10-31T05:45:58;16.47;;;9.80;;
10910;SDS011;5508;49.150;11.030;2022-10-31T05:48:59;13.53;;;9.57;;
10910;SDS011;5508;49.150;11.030;2022-10-31T05:51:59;13.83;;;8.67;;
10910;SDS011;5508;49.150;11.030;2022-10-31T05:55:00;18.40;;;8.93;;
10910;SDS011;5508;49.150;11.030;2022-10-31T05:58:00;9.70;;;7.70;;
10910;SDS011;5508;49.150;11.030;2022-10-31T06:01:01;14.93;;;6.97;;
10910;SDS011;5508;49.150;11.030;2022-10-31T06:04:01;13.30;;;7.13;;
10910;SDS011;5508;49.150;11.030;2022-10-31T06:07:02;9.80;;;7.70;;
10910;SDS011;5508;49.150;11.030;2022-10-31T06:10:03;11.47;;;8.37;;
10910;SDS011;5508;49.150;11.030;2022-10-31T06:13:05;9.70;;;7.37;;
10910;SDS011;5508;49.150;11.030;2022-10-31T06:16:06;8.13;;;5.70;;
10910;SDS011;5508;49.150;11.030;2022-10-31T06:19:07;8.77;;;5.60;;
10910;SDS011;5508;49.150;11.030;2022-10-31T06:22:07;12.30;;;5.73;;
10910;SDS011;5508;49.150;11.030;2022-10-31T06:25:08;8.27;;;5.60;;
10910;SDS011;5508;49.150;11.030;2022-10-31T06:28:08;9.40;;;6.23;;
10910;SDS011;5508;49.150;11.030;2022-10-31T06:31:09;10.13;;;6.30;;
10910;SDS011;5508;49.150;11.030;2022-10-31T06:34:10;10.30;;;6.10;;
10910;SDS011;5508;49.150;11.030;2022-10-31T06:37:11;9.83;;;7.07;;
10910;SDS011;5508;49.150;11.030;2022-10-31T06:40:12;10.10;;;6.40;;
10910;SDS011;5508;49.150;11.030;2022-10-31T06:43:12;11.90;;;7.90;;
10910;SDS011;5508;49.150;11.030;2022-10-31T06:46:14;11.53;;;7.00;;
10910;SDS011;5508;49.150;11.030;2022-10-31T06:49:15;9.73;;;6.60;;
10910;SDS011;5508;49.150;11.030;2022-10-31T06:52:15;8.20;;;5.97;;
10910;SDS011;5508;49.150;11.030;2022-10-31T06:55:16;8.87;;;6.20;;
10910;SDS011;5508;49.150;11.030;2022-10-31T06:58:17;8.90;;;6.07;;
10910;SDS011;5508;49.150;11.030;2022-10-31T07:01:17;12.03;;;6.63;;
10910;SDS011;5508;49.150;11.030;2022-10-31T07:04:21;9.77;;;6.10;;
10910;SDS011;5508;49.150;11.030;2022-10-31T07:07:22;9.07;;;7.57;;
10910;SDS011;5508;49.150;11.030;2022-10-31T07:10:23;11.57;;;8.10;;
10910;SDS011;5508;49.150;11.030;2022-10-31T07:13:25;10.23;;;7.10;;
10910;SDS011;5508;49.150;11.030;2022-10-31T07:16:26;12.20;;;7.37;;
10910;SDS011;5508;49.150;11.030;2022-10-31T07:19:26;11.60;;;7.73;;
10910;SDS011;5508;49.150;11.030;2022-10-31T07:22:34;11.70;;;8.13;;
10910;SDS011;5508;49.150;11.030;2022-10-31T07:25:35;9.20;;;7.27;;
10910;SDS011;5508;49.150;11.030;2022-10-31T07:28:35;11.67;;;8.20;;
10910;SDS011;5508;49.150;11.030;2022-10-31T07:31:36;12.90;;;8.03;;
10910;SDS011;5508;49.150;11.030;2022-10-31T07:34:37;10.53;;;8.17;;
10910;SDS011;5508;49.150;11.030;2022-10-31T07:37:37;10.23;;;8.17;;
10910;SDS011;5508;49.150;11.030;2022-10-31T07:40:39;10.70;;;7.90;;
10910;SDS011;5508;49.150;11.030;2022-10-31T07:43:40;11.77;;;8.37;;
10910;SDS011;5508;49.150;11.030;2022-10-31T07:46:40;14.87;;;8.73;;
10910;SDS011;5508;49.150;11.030;2022-10-31T07:49:41;12.17;;;8.47;;
10910;SDS011;5508;49.150;11.030;2022-10-31T07:52:42;16.40;;;8.37;;
10910;SDS011;5508;49.150;11.030;2022-10-31T07:55:43;11.17;;;7.83;;
10910;SDS011;5508;49.150;11.030;2022-10-31T07:58:43;14.30;;;9.33;;
10910;SDS011;5508;49.150;11.030;2022-10-31T08:01:44;13.13;;;9.67;;
10910;SDS011;5508;49.150;11.030;2022-10-31T08:04:45;12.60;;;8.47;;
10910;SDS011;5508;49.150;11.030;2022-10-31T08:07:45;13.07;;;10.23;;
10910;SDS011;5508;49.150;11.030;2022-10-31T08:10:46;18.57;;;9.37;;
10910;SDS011;5508;49.150;11.030;2022-10-31T08:13:47;11.23;;;8.87;;
10910;SDS011;5508;49.150;11.030;2022-10-31T08:16:47;13.80;;;8.57;;
10910;SDS011;5508;49.150;11.030;2022-10-31T08:19:48;16.70;;;9.30;;
10910;SDS011;5508;49.150;11.030;2022-10-31T08:22:52;10.23;;;8.17;;
10910;SDS011;5508;49.150;11.030;2022-10-31T08:25:54;9.40;;;8.13;;
10910;SDS011;5508;49.150;11.030;2022-10-31T08:28:54;15.03;;;8.53;;
10910;SDS011;5508;49.150;11.030;2022-10-31T08:31:57;9.03;;;7.87;;
10910;SDS011;5508;49.150;11.030;2022-10-31T08:34:58;14.97;;;8.77;;
10910;SDS011;5508;49.150;11.030;2022-10-31T08:37:59;10.23;;;8.00;;
10910;SDS011;5508;49.150;11.030;2022-10-31T08:41:00;15.93;;;8.17;;
10910;SDS011;5508;49.150;11.030;2022-10-31T08:44:00;12.90;;;7.53;;
10910;SDS011;5508;49.150;11.030;2022-10-31T08:47:01;14.27;;;8.13;;
10910;SDS011;5508;49.150;11.030;2022-10-31T08:50:01;10.67;;;8.20;;
10910;SDS011;5508;49.150;11.030;2022-10-31T08:53:03;14.07;;;8.97;;
10910;SDS011;5508;49.150;11.030;2022-10-31T08:56:09;13.93;;;8.13;;
10910;SDS011;5508;49.150;11.030;2022-10-31T08:59:09;13.77;;;7.93;;
10910;SDS011;5508;49.150;11.030;2022-10-31T09:02:10;15.83;;;7.97;;
10910;SDS011;5508;49.150;11.030;2022-10-31T09:05:10;14.43;;;8.33;;
10910;SDS011;5508;49.150;11.030;2022-10-31T09:08:11;10.23;;;7.30;;
10910;SDS011;5508;49.150;11.030;2022-10-31T09:11:12;9.70;;;7.97;;
10910;SDS011;5508;49.150;11.030;2022-10-31T09:14:13;8.87;;;7.03;;
10910;SDS011;5508;49.150;11.030;2022-10-31T09:17:14;9.10;;;7.50;;
10910;SDS011;5508;49.150;11.030;2022-10-31T09:20:14;13.63;;;7.50;;
10910;SDS011;5508;49.150;11.030;2022-10-31T09:23:19;12.67;;;7.80;;
10910;SDS011;5508;49.150;11.030;2022-10-31T09:26:21;10.93;;;8.10;;
10910;SDS011;5508;49.150;11.030;2022-10-31T09:29:21;11.67;;;7.77;;
10910;SDS011;5508;49.150;11.030;2022-10-31T09:32:22;13.03;;;8.07;;
10910;SDS011;5508;49.150;11.030;2022-10-31T09:35:23;13.77;;;7.87;;
10910;SDS011;5508;49.150;11.030;2022-10-31T09:38:23;12.17;;;7.47;;
10910;SDS011;5508;49.150;11.030;2022-10-31T09:41:30;10.27;;;7.13;;
10910;SDS011;5508;49.150;11.030;2022-10-31T09:45:01;11.80;;;8.03;;
10910;SDS011;5508;49.150;11.030;2022-10-31T09:51:39;14.00;;;8.90;;
10910;SDS011;5508;49.150;11.030;2022-10-31T09:57:58;18.87;;;8.17;;
10910;SDS011;5508;49.150;11.030;2022-10-31T10:01:00;11.20;;;6.73;;
10910;SDS011;5508;49.150;11.030;2022-10-31T10:15:00;8.40;;;5.67;;
10910;SDS011;5508;49.150;11.030;2022-10-31T10:22:04;14.67;;;6.20;;
10910;SDS011;5508;49.150;11.030;2022-10-31T10:25:14;9.83;;;5.83;;
10910;SDS011;5508;49.150;11.030;2022-10-31T10:28:28;11.93;;;6.72;;
10910;SDS011;5508;49.150;11.030;2022-10-31T10:31:39;11.35;;;5.80;;
10910;SDS011;5508;49.150;11.030;2022-10-31T10:34:51;13.40;;;6.03;;
10910;SDS011;5508;49.150;11.030;2022-10-31T10:38:07;11.53;;;6.77;;
10910;SDS011;5508;49.150;11.030;2022-10-31T10:41:27;11.60;;;5.73;;
10910;SDS011;5508;49.150;11.030;2022-10-31T10:44:31;10.67;;;5.53;;
10910;SDS011;5508;49.150;11.030;2022-10-31T10:47:52;11.48;;;6.65;;
10910;SDS011;5508;49.150;11.030;2022-10-31T10:50:59;10.63;;;5.35;;
10910;SDS011;5508;49.150;11.030;2022-10-31T10:54:31;10.73;;;5.88;;
10910;SDS011;5508;49.150;11.030;2022-10-31T10:57:56;13.57;;;6.03;;
10910;SDS011;5508;49.150;11.030;2022-10-31T11:01:01;9.55;;;5.05;;
10910;SDS011;5508;49.150;11.030;2022-10-31T11:04:21;9.85;;;5.63;;
10910;SDS011;5508;49.150;11.030;2022-10-31T11:07:38;14.55;;;7.15;;
10910;SDS011;5508;49.150;11.030;2022-10-31T11:10:39;9.10;;;5.07;;
10910;SDS011;5508;49.150;11.030;2022-10-31T11:13:40;9.65;;;5.30;;
10910;SDS011;5508;49.150;11.030;2022-10-31T11:16:43;11.75;;;5.18;;
10910;SDS011;5508;49.150;11.030;2022-10-31T11:19:47;11.13;;;5.07;;
10910;SDS011;5508;49.150;11.030;2022-10-31T11:22:48;9.65;;;4.50;;
10910;SDS011;5508;49.150;11.030;2022-10-31T11:26:05;7.60;;;3.70;;
10910;SDS011;5508;49.150;11.030;2022-10-31T11:29:19;8.13;;;3.55;;
10910;SDS011;5508;49.150;11.030;2022-10-31T11:32:24;7.80;;;3.67;;
10910;SDS011;5508;49.150;11.030;2022-10-31T11:35:27;8.48;;;3.80;;
10910;SDS011;5508;49.150;11.030;2022-10-31T11:38:41;9.38;;;3.80;;
10910;SDS011;5508;49.150;11.030;2022-10-31T11:41:43;11.30;;;4.32;;
10910;SDS011;5508;49.150;11.030;2022-10-31T11:44:44;13.02;;;3.17;;
10910;SDS011;5508;49.150;11.030;2022-10-31T11:47:49;9.05;;;3.47;;
10910;SDS011;5508;49.150;11.030;2022-10-31T11:50:55;16.58;;;4.28;;
10910;SDS011;5508;49.150;11.030;2022-10-31T11:53:58;10.05;;;3.78;;
10910;SDS011;5508;49.150;11.030;2022-10-31T11:56:59;8.95;;;3.80;;
10910;SDS011;5508;49.150;11.030;2022-10-31T12:00:00;12.15;;;3.72;;
10910;SDS011;5508;49.150;11.030;2022-10-31T12:06:21;8.57;;;3.55;;
10910;SDS011;5508;49.150;11.030;2022-10-31T12:09:29;7.50;;;3.25;;
10910;SDS011;5508;49.150;11.030;2022-10-31T12:12:38;8.23;;;3.75;;
10910;SDS011;5508;49.150;11.030;2022-10-31T12:16:01;7.95;;;3.72;;
10910;SDS011;5508;49.150;11.030;2022-10-31T12:19:57;6.40;;;3.40;;
10910;SDS011;5508;49.150;11.030;2022-10-31T12:25:55;7.07;;;3.47;;
10910;SDS011;5508;49.150;11.030;2022-10-31T12:29:24;8.25;;;3.58;;
10910;SDS011;5508;49.150;11.030;2022-10-31T12:32:48;10.32;;;4.15;;
10910;SDS011;5508;49.150;11.030;2022-10-31T12:36:41;10.07;;;3.33;;
10910;SDS011;5508;49.150;11.030;2022-10-31T12:46:30;15.10;;;3.78;;
10910;SDS011;5508;49.150;11.030;2022-10-31T12:53:34;6.85;;;3.10;;
10910;SDS011;5508;49.150;11.030;2022-10-31T13:00:57;11.63;;;3.28;;
10910;SDS011;5508;49.150;11.030;2022-10-31T13:04:42;7.97;;;3.78;;
10910;SDS011;5508;49.150;11.030;2022-10-31T13:07:50;7.82;;;3.30;;
10910;SDS011;5508;49.150;11.030;2022-10-31T13:11:09;12.80;;;3.50;;
10910;SDS011;5508;49.150;11.030;2022-10-31T13:14:23;8.50;;;3.92;;
10910;SDS011;5508;49.150;11.030;2022-10-31T13:17:45;6.28;;;3.58;;
10910;SDS011;5508;49.150;11.030;2022-10-31T13:20:57;6.90;;;3.30;;
10910;SDS011;5508;49.150;11.030;2022-10-31T13:24:02;5.28;;;3.45;;
10910;SDS011;5508;49.150;11.030;2022-10-31T13:27:26;10.75;;;3.65;;
10910;SDS011;5508;49.150;11.030;2022-10-31T13:30:49;11.27;;;4.20;;
10910;SDS011;5508;49.150;11.030;2022-10-31T13:33:57;9.02;;;3.58;;
10910;SDS011;5508;49.150;11.030;2022-10-31T13:37:53;13.52;;;4.68;;
10910;SDS011;5508;49.150;11.030;2022-10-31T13:43:59;9.02;;;4.18;;
10910;SDS011;5508;49.150;11.030;2022-10-31T13:50:55;12.77;;;5.13;;
10910;SDS011;5508;49.150;11.030;2022-10-31T13:54:19;9.10;;;4.60;;
10910;SDS011;5508;49.150;11.030;2022-10-31T13:57:38;8.05;;;4.70;;
10910;SDS011;5508;49.150;11.030;2022-10-31T14:00:43;11.77;;;4.47;;
10910;SDS011;5508;49.150;11.030;2022-10-31T14:03:45;12.75;;;5.22;;
10910;SDS011;5508;49.150;11.030;2022-10-31T14:09:52;13.30;;;5.90;;
10910;SDS011;5508;49.150;11.030;2022-10-31T14:13:32;15.82;;;5.15;;
10910;SDS011;5508;49.150;11.030;2022-10-31T14:16:42;13.40;;;5.63;;
10910;SDS011;5508;49.150;11.030;2022-10-31T14:19:55;11.50;;;4.70;;
10910;SDS011;5508;49.150;11.030;2022-10-31T14:22:59;9.95;;;4.53;;
10910;SDS011;5508;49.150;11.030;2022-10-31T14:26:31;14.27;;;4.97;;
10910;SDS011;5508;49.150;11.030;2022-10-31T14:29:33;13.13;;;5.40;;
10910;SDS011;5508;49.150;11.030;2022-10-31T14:32:34;14.17;;;5.00;;
10910;SDS011;5508;49.150;11.030;2022-10-31T14:35:51;9.65;;;4.95;;
10910;SDS011;5508;49.150;11.030;2022-10-31T14:39:00;13.23;;;5.38;;
10910;SDS011;5508;49.150;11.030;2022-10-31T14:45:14;14.40;;;5.35;;
10910;SDS011;5508;49.150;11.030;2022-10-31T14:51:53;16.07;;;5.13;;
10910;SDS011;5508;49.150;11.030;2022-10-31T14:54:56;8.73;;;4.95;;
10910;SDS011;5508;49.150;11.030;2022-10-31T14:58:04;17.90;;;5.22;;
10910;SDS011;5508;49.150;11.030;2022-10-31T15:01:07;14.67;;;5.93;;
10910;SDS011;5508;49.150;11.030;2022-10-31T15:07:21;12.88;;;5.43;;
10910;SDS011;5508;49.150;11.030;2022-10-31T15:13:27;9.47;;;5.30;;
10910;SDS011;5508;49.150;11.030;2022-10-31T15:16:30;11.20;;;5.53;;
10910;SDS011;5508;49.150;11.030;2022-10-31T15:19:34;14.02;;;5.40;;
10910;SDS011;5508;49.150;11.030;2022-10-31T15:22:36;12.05;;;6.03;;
10910;SDS011;5508;49.150;11.030;2022-10-31T15:25:37;14.17;;;5.93;;
10910;SDS011;5508;49.150;11.030;2022-10-31T15:28:37;17.60;;;5.73;;
10910;SDS011;5508;49.150;11.030;2022-10-31T15:31:38;12.90;;;5.73;;
10910;SDS011;5508;49.150;11.030;2022-10-31T15:34:49;11.07;;;5.37;;
10910;SDS011;5508;49.150;11.030;2022-10-31T15:37:52;11.47;;;5.60;;
10910;SDS011;5508;49.150;11.030;2022-10-31T15:41:06;10.90;;;5.83;;
10910;SDS011;5508;49.150;11.030;2022-10-31T15:44:24;14.03;;;5.20;;
10910;SDS011;5508;49.150;11.030;2022-10-31T15:47:29;12.50;;;5.63;;
10910;SDS011;5508;49.150;11.030;2022-10-31T15:50:32;11.57;;;5.83;;
10910;SDS011;5508;49.150;11.030;2022-10-31T15:53:41;14.83;;;6.53;;
10910;SDS011;5508;49.150;11.030;2022-10-31T15:56:47;11.47;;;5.70;;
10910;SDS011;5508;49.150;11.030;2022-10-31T15:59:48;13.83;;;7.90;;
10910;SDS011;5508;49.150;11.030;2022-10-31T16:02:49;36.83;;;20.63;;
10910;SDS011;5508;49.150;11.030;2022-10-31T16:05:54;37.80;;;21.90;;
10910;SDS011;5508;49.150;11.030;2022-10-31T16:08:56;65.20;;;35.43;;
10910;SDS011;5508;49.150;11.030;2022-10-31T16:11:57;17.73;;;10.33;;
10910;SDS011;5508;49.150;11.030;2022-10-31T16:14:59;17.63;;;8.07;;
10910;SDS011;5508;49.150;11.030;2022-10-31T16:18:00;28.80;;;17.70;;
10910;SDS011;5508;49.150;11.030;2022-10-31T16:21:01;18.27;;;10.83;;
10910;SDS011;5508;49.150;11.030;2022-10-31T16:24:03;37.90;;;22.27;;
10910;SDS011;5508;49.150;11.030;2022-10-31T16:27:16;23.13;;;12.43;;
10910;SDS011;5508;49.150;11.030;2022-10-31T16:30:38;29.20;;;18.30;;
10910;SDS011;5508;49.150;11.030;2022-10-31T16:33:40;23.57;;;13.63;;
10910;SDS011;5508;49.150;11.030;2022-10-31T16:36:42;32.17;;;17.40;;
10910;SDS011;5508;49.150;11.030;2022-10-31T16:39:43;21.60;;;11.27;;
10910;SDS011;5508;49.150;11.030;2022-10-31T16:42:44;17.57;;;9.87;;
10910;SDS011;5508;49.150;11.030;2022-10-31T16:45:49;20.97;;;14.20;;
10910;SDS011;5508;49.150;11.030;2022-10-31T16:48:50;24.63;;;16.50;;
10910;SDS011;5508;49.150;11.030;2022-10-31T16:51:51;26.97;;;16.63;;
10910;SDS011;5508;49.150;11.030;2022-10-31T16:54:52;29.43;;;17.77;;
10910;SDS011;5508;49.150;11.030;2022-10-31T16:57:54;31.67;;;19.47;;
10910;SDS011;5508;49.150;11.030;2022-10-31T17:00:57;30.57;;;19.13;;
10910;SDS011;5508;49.150;11.030;2022-10-31T17:04:03;34.07;;;25.20;;
10910;SDS011;5508;49.150;11.030;2022-10-31T17:07:04;24.50;;;17.07;;
10910;SDS011;5508;49.150;11.030;2022-10-31T17:10:04;16.47;;;9.20;;
10910;SDS011;5508;49.150;11.030;2022-10-31T17:13:07;11.70;;;8.43;;
10910;SDS011;5508;49.150;11.030;2022-10-31T17:16:16;13.63;;;8.53;;
10910;SDS011;5508;49.150;11.030;2022-10-31T17:19:17;14.03;;;10.23;;
10910;SDS011;5508;49.150;11.030;2022-10-31T17:22:17;17.60;;;10.50;;
10910;SDS011;5508;49.150;11.030;2022-10-31T17:25:19;17.77;;;9.43;;
10910;SDS011;5508;49.150;11.030;2022-10-31T17:28:22;14.07;;;9.60;;
10910;SDS011;5508;49.150;11.030;2022-10-31T17:31:27;14.50;;;8.07;;
10910;SDS011;5508;49.150;11.030;2022-10-31T17:34:29;16.00;;;8.50;;
10910;SDS011;5508;49.150;11.030;2022-10-31T17:37:30;19.07;;;12.63;;
10910;SDS011;5508;49.150;11.030;2022-10-31T17:40:30;15.77;;;10.50;;
10910;SDS011;5508;49.150;11.030;2022-10-31T17:43:32;21.80;;;13.90;;
10910;SDS011;5508;49.150;11.030;2022-10-31T17:46:32;17.73;;;13.93;;
10910;SDS011;5508;49.150;11.030;2022-10-31T17:49:33;14.37;;;10.73;;
10910;SDS011;5508;49.150;11.030;2022-10-31T17:52:34;13.40;;;8.87;;
10910;SDS011;5508;49.150;11.030;2022-10-31T17:55:34;14.67;;;11.97;;
10910;SDS011;5508;49.150;11.030;2022-10-31T17:58:35;17.83;;;11.40;;
10910;SDS011;5508;49.150;11.030;2022-10-31T18:01:36;19.90;;;11.03;;
10910;SDS011;5508;49.150;11.030;2022-10-31T18:04:37;12.73;;;8.23;;
10910;SDS011;5508;49.150;11.030;2022-10-31T18:07:39;10.23;;;7.60;;
10910;SDS011;5508;49.150;11.030;2022-10-31T18:10:40;12.13;;;6.80;;
10910;SDS011;5508;49.150;11.030;2022-10-31T18:13:41;13.50;;;7.43;;
10910;SDS011;5508;49.150;11.030;2022-10-31T18:16:41;10.57;;;6.57;;
10910;SDS011;5508;49.150;11.030;2022-10-31T18:19:42;11.90;;;7.43;;
10910;SDS011;5508;49.150;11.030;2022-10-31T18:22:43;13.00;;;7.17;;
10910;SDS011;5508;49.150;11.030;2022-10-31T18:25:43;10.07;;;7.17;;
10910;SDS011;5508;49.150;11.030;2022-10-31T18:28:44;12.77;;;6.70;;
10910;SDS011;5508;49.150;11.030;2022-10-31T18:31:44;15.43;;;7.90;;
10910;SDS011;5508;49.150;11.030;2022-10-31T18:34:50;13.27;;;7.73;;
10910;SDS011;5508;49.150;11.030;2022-10-31T18:37:50;17.07;;;7.50;;
10910;SDS011;5508;49.150;11.030;2022-10-31T18:40:51;13.80;;;8.00;;
10910;SDS011;5508;49.150;11.030;2022-10-31T18:43:55;16.73;;;10.10;;
10910;SDS011;5508;49.150;11.030;2022-10-31T18:46:58;12.07;;;8.27;;
10910;SDS011;5508;49.150;11.030;2022-10-31T18:49:59;15.80;;;8.43;;
10910;SDS011;5508;49.150;11.030;2022-10-31T18:52:59;14.80;;;9.30;;
10910;SDS011;5508;49.150;11.030;2022-10-31T18:56:00;13.87;;;7.83;;
10910;SDS011;5508;49.150;11.030;2022-10-31T18:59:01;14.23;;;7.10;;
10910;SDS011;5508;49.150;11.030;2022-10-31T19:02:02;16.00;;;8.37;;
10910;SDS011;5508;49.150;11.030;2022-10-31T19:05:02;16.13;;;8.67;;
10910;SDS011;5508;49.150;11.030;2022-10-31T19:08:03;11.50;;;7.70;;
10910;SDS011;5508;49.150;11.030;2022-10-31T19:11:08;14.47;;;7.90;;
10910;SDS011;5508;49.150;11.030;2022-10-31T19:14:11;12.53;;;7.33;;
10910;SDS011;5508;49.150;11.030;2022-10-31T19:17:12;20.90;;;14.03;;
10910;SDS011;5508;49.150;11.030;2022-10-31T19:20:13;19.80;;;13.13;;
10910;SDS011;5508;49.150;11.030;2022-10-31T19:23:13;25.87;;;16.90;;
10910;SDS011;5508;49.150;11.030;2022-10-31T19:26:16;19.00;;;11.70;;
10910;SDS011;5508;49.150;11.030;2022-10-31T19:29:16;16.73;;;9.60;;
10910;SDS011;5508;49.150;11.030;2022-10-31T19:32:17;11.63;;;8.00;;
10910;SDS011;5508;49.150;11.030;2022-10-31T19:35:17;10.60;;;7.50;;
10910;SDS011;5508;49.150;11.030;2022-10-31T19:38:18;13.43;;;6.87;;
10910;SDS011;5508;49.150;11.030;2022-10-31T19:41:26;13.33;;;7.20;;
10910;SDS011;5508;49.150;11.030;2022-10-31T19:44:27;12.40;;;7.67;;
10910;SDS011;5508;49.150;11.030;2022-10-31T19:47:30;51.43;;;33.10;;